Time;durP1;ratioP1;P1;durP2;ratioP2;P2;SDS_P1;SDS_P2;PMS_P1;PMS_P2;Temp;Humidity;BMP_temperature;BMP_pressure;BME280_temperature;BME280_humidity;BME280_pressure;Samples;Min_cycle;Max_cycle;Signal;HPM_P1;HPM_P2
2021/05/10 00:01:24;;;;;;;3.93;3.43;;;18.30;48.10;;;;;;4976988;28;20502;-78
2021/05/10 00:03:52;;;;;;;4.33;3.93;;;18.20;49.50;;;;;;4977934;28;20441;-78
2021/05/10 00:06:18;;;;;;;4.43;2.97;;;17.80;51.80;;;;;;4978363;28;20487;-79
2021/05/10 00:08:47;;;;;;;3.70;3.40;;;17.60;55.90;;;;;;4982912;28;20512;-77
2021/05/10 00:11:13;;;;;;;4.10;3.20;;;17.50;54.60;;;;;;4976983;28;20486;-77
2021/05/10 00:13:43;;;;;;;5.70;3.13;;;17.60;54.70;;;;;;4978209;28;20511;-78
2021/05/10 00:16:13;;;;;;;3.67;2.83;;;17.60;54.60;;;;;;4977794;28;20494;-79
2021/05/10 00:18:39;;;;;;;2.83;2.53;;;17.50;53.60;;;;;;4977677;28;20459;-78
2021/05/10 00:21:07;;;;;;;3.20;2.80;;;17.60;53.40;;;;;;4976468;28;20969;-78
2021/05/10 00:23:33;;;;;;;5.50;2.90;;;17.60;52.80;;;;;;4977845;28;20475;-78
2021/05/10 00:26:00;;;;;;;3.40;2.77;;;17.50;53.20;;;;;;4978912;28;20951;-78
2021/05/10 00:28:26;;;;;;;2.90;2.70;;;17.40;53.80;;;;;;4979991;28;20855;-78
2021/05/10 00:30:53;;;;;;;2.77;2.60;;;17.30;54.00;;;;;;4984374;28;20459;-78
2021/05/10 00:33:19;;;;;;;3.00;2.53;;;17.30;53.70;;;;;;4981101;28;20567;-78
2021/05/10 00:35:45;;;;;;;2.70;2.37;;;17.30;53.30;;;;;;4977342;28;20459;-78
2021/05/10 00:38:13;;;;;;;2.83;2.60;;;17.30;52.60;;;;;;4975972;28;20494;-78
2021/05/10 00:40:39;;;;;;;3.23;2.50;;;17.30;52.80;;;;;;4976828;28;20566;-78
2021/05/10 00:43:06;;;;;;;5.33;3.40;;;17.20;52.80;;;;;;4976852;28;20537;-78
2021/05/10 00:45:33;;;;;;;2.93;2.67;;;17.20;51.80;;;;;;4977276;28;20509;-78
2021/05/10 00:48:02;;;;;;;4.63;2.77;;;17.30;51.20;;;;;;4993262;28;20456;-78
2021/05/10 00:50:28;;;;;;;3.37;2.50;;;17.30;51.70;;;;;;4991776;28;20507;-78
2021/05/10 00:52:55;;;;;;;2.57;2.37;;;17.30;50.80;;;;;;4999156;28;20460;-79
2021/05/10 00:55:22;;;;;;;4.50;2.70;;;17.30;50.60;;;;;;4998796;28;20411;-79
2021/05/10 00:57:52;;;;;;;3.30;2.60;;;17.30;50.60;;;;;;4994627;28;20528;-79
2021/05/10 01:00:20;;;;;;;3.10;2.53;;;17.30;49.50;;;;;;4981903;28;21031;-79
2021/05/10 01:02:47;;;;;;;4.70;2.20;;;17.40;48.10;;;;;;4982565;28;20578;-79
2021/05/10 01:05:15;;;;;;;2.40;2.20;;;17.50;47.10;;;;;;4980899;28;20929;-78
2021/05/10 01:07:42;;;;;;;2.10;2.00;;;17.50;46.50;;;;;;4983758;28;20452;-78
2021/05/10 01:10:11;;;;;;;2.33;2.13;;;17.50;46.50;;;;;;4981003;28;20503;-79
2021/05/10 01:12:39;;;;;;;2.43;1.90;;;17.50;46.50;;;;;;4985565;28;20437;-79
2021/05/10 01:15:08;;;;;;;2.30;2.10;;;17.50;45.10;;;;;;4978859;28;20488;-79
2021/05/10 01:17:36;;;;;;;3.30;2.20;;;17.60;44.10;;;;;;4978547;28;20460;-79
2021/05/10 01:20:06;;;;;;;2.73;2.20;;;17.60;44.10;;;;;;4976682;28;20475;-78
2021/05/10 01:22:40;;;;;;;3.10;2.13;;;17.60;42.80;;;;;;4977524;28;20605;-77
2021/05/10 01:25:08;;;;;;;2.03;1.93;;;17.60;43.80;;;;;;4976787;28;20460;-77
2021/05/10 01:27:35;;;;;;;2.47;2.27;;;17.60;42.20;;;;;;4976365;28;20457;-78
2021/05/10 01:30:02;;;;;;;2.13;1.93;;;17.60;41.80;;;;;;4976600;28;20577;-77
2021/05/10 01:32:29;;;;;;;5.03;2.27;;;17.60;41.60;;;;;;4976822;28;20453;-78
2021/05/10 01:34:55;;;;;;;2.00;1.80;;;17.60;40.80;;;;;;4990355;28;20440;-79
2021/05/10 01:37:22;;;;;;;2.53;2.07;;;17.60;41.00;;;;;;4998101;28;20427;-78
2021/05/10 01:39:49;;;;;;;2.50;2.30;;;17.70;41.00;;;;;;4998489;28;20474;-79
2021/05/10 01:42:15;;;;;;;3.90;2.10;;;17.70;41.00;;;;;;4998386;28;20407;-78
2021/05/10 01:44:42;;;;;;;3.60;2.00;;;17.80;41.10;;;;;;4993077;28;20453;-78
2021/05/10 01:47:08;;;;;;;1.60;1.50;;;17.70;41.70;;;;;;4979512;28;20511;-77
2021/05/10 01:49:35;;;;;;;2.03;1.77;;;17.60;42.70;;;;;;4978227;28;20431;-79
2021/05/10 01:52:02;;;;;;;2.17;1.97;;;17.60;42.00;;;;;;4978925;28;20469;-77
2021/05/10 01:54:28;;;;;;;1.93;1.83;;;17.50;42.70;;;;;;4978187;28;20459;-78
2021/05/10 01:56:55;;;;;;;2.73;1.80;;;17.40;42.70;;;;;;4975727;28;20824;-79
2021/05/10 01:59:22;;;;;;;3.70;2.30;;;17.30;41.90;;;;;;4976696;28;20554;-79
2021/05/10 02:01:48;;;;;;;2.13;1.97;;;17.30;41.90;;;;;;4981131;28;20469;-79
2021/05/10 02:04:15;;;;;;;1.80;1.70;;;17.20;42.30;;;;;;4983462;28;20487;-79
2021/05/10 02:06:41;;;;;;;2.30;2.20;;;17.30;42.40;;;;;;4990532;28;20978;-78
2021/05/10 02:09:08;;;;;;;6.87;2.20;;;17.20;42.60;;;;;;4994918;28;20490;-78
2021/05/10 02:11:34;;;;;;;2.20;2.00;;;17.20;43.20;;;;;;4990385;28;20459;-78
2021/05/10 02:14:01;;;;;;;2.30;2.10;;;17.20;43.30;;;;;;4982454;28;20933;-79
2021/05/10 02:16:28;;;;;;;2.40;2.20;;;17.10;42.90;;;;;;4982662;28;20442;-79
2021/05/10 02:18:57;;;;;;;3.50;2.40;;;17.20;43.00;;;;;;4982586;28;20496;-79
2021/05/10 02:21:30;;;;;;;2.23;2.10;;;17.10;43.10;;;;;;4982623;28;20464;-79
2021/05/10 02:23:57;;;;;;;3.60;2.00;;;17.10;43.30;;;;;;4980846;28;20452;-79
2021/05/10 02:26:24;;;;;;;3.30;2.50;;;17.10;43.60;;;;;;4984166;28;20529;-79
2021/05/10 02:28:50;;;;;;;2.67;2.47;;;17.10;43.50;;;;;;4982195;28;20979;-79
2021/05/10 02:31:17;;;;;;;2.10;1.90;;;17.20;44.20;;;;;;4989527;28;20476;-80
2021/05/10 02:33:43;;;;;;;2.47;2.20;;;17.10;45.10;;;;;;4997818;28;20407;-80
2021/05/10 02:36:10;;;;;;;2.03;1.93;;;17.10;45.00;;;;;;4997573;28;20459;-81
2021/05/10 02:38:36;;;;;;;4.00;2.47;;;17.10;44.40;;;;;;4996915;28;20680;-80
2021/05/10 02:41:03;;;;;;;1.90;1.80;;;17.10;43.90;;;;;;4995748;28;20483;-80
2021/05/10 02:43:29;;;;;;;2.40;2.20;;;17.10;45.00;;;;;;4993206;28;20431;-78
2021/05/10 02:45:56;;;;;;;2.93;2.47;;;17.00;46.00;;;;;;4995603;28;20484;-77
2021/05/10 02:48:23;;;;;;;2.50;2.30;;;17.00;46.00;;;;;;4989937;28;20476;-78
2021/05/10 02:50:50;;;;;;;2.07;1.80;;;16.90;45.90;;;;;;4985806;28;20563;-79
2021/05/10 02:53:17;;;;;;;4.37;2.50;;;16.80;45.20;;;;;;4980570;28;20453;-79
2021/05/10 02:55:43;;;;;;;3.73;2.70;;;16.70;45.80;;;;;;4988658;28;20449;-79
2021/05/10 02:58:10;;;;;;;2.33;2.13;;;16.70;45.80;;;;;;4980918;28;20504;-79
2021/05/10 03:00:36;;;;;;;2.37;2.17;;;16.70;45.80;;;;;;4979353;28;20484;-79
2021/05/10 03:03:03;;;;;;;2.47;2.27;;;16.60;45.60;;;;;;4979374;28;20460;-79
2021/05/10 03:05:30;;;;;;;3.10;2.00;;;16.60;45.00;;;;;;4979370;28;20791;-78
2021/05/10 03:07:58;;;;;;;3.30;2.20;;;16.60;43.60;;;;;;4980229;28;20495;-79
2021/05/10 03:10:25;;;;;;;3.47;2.80;;;16.60;43.20;;;;;;4975316;28;20839;-79
2021/05/10 03:12:53;;;;;;;3.80;2.90;;;16.60;43.40;;;;;;4975712;28;20526;-78
2021/05/10 03:15:21;;;;;;;3.27;2.97;;;16.60;43.70;;;;;;4978074;28;20452;-79
2021/05/10 03:17:50;;;;;;;3.20;2.40;;;16.60;43.10;;;;;;4977915;28;20468;-78
2021/05/10 03:20:19;;;;;;;3.13;2.80;;;16.70;44.40;;;;;;4979449;28;20476;-78
2021/05/10 03:22:50;;;;;;;3.07;2.80;;;16.70;44.60;;;;;;4977433;28;20438;-78
2021/05/10 03:25:17;;;;;;;3.70;3.40;;;16.70;45.10;;;;;;4980088;28;20460;-79
2021/05/10 03:27:44;;;;;;;3.30;3.10;;;16.70;43.70;;;;;;4979971;28;20941;-79
2021/05/10 03:30:13;;;;;;;4.17;3.17;;;16.80;43.40;;;;;;4976655;28;20539;-78
2021/05/10 03:32:40;;;;;;;3.10;2.80;;;17.00;43.20;;;;;;4977040;28;20463;-79
2021/05/10 03:35:08;;;;;;;3.03;2.73;;;17.20;41.10;;;;;;4979500;28;20824;-79
2021/05/10 03:37:35;;;;;;;3.80;2.60;;;17.40;41.20;;;;;;4978998;28;20486;-79
2021/05/10 03:40:02;;;;;;;2.37;2.17;;;17.40;40.80;;;;;;4981321;28;20475;-79
2021/05/10 03:42:29;;;;;;;2.87;2.33;;;17.60;40.00;;;;;;4983368;28;20452;-79
2021/05/10 03:44:55;;;;;;;2.40;2.20;;;17.80;40.10;;;;;;4982291;28;20446;-78
2021/05/10 03:47:32;;;;;;;4.40;2.50;;;17.90;40.30;;;;;;4983862;28;20941;-79
2021/05/10 03:49:59;;;;;;;2.87;2.67;;;17.90;41.40;;;;;;4983372;28;21042;-79
2021/05/10 03:52:26;;;;;;;5.13;2.30;;;17.90;41.80;;;;;;4988298;28;20904;-79
2021/05/10 03:54:53;;;;;;;4.77;2.10;;;17.80;41.80;;;;;;4993616;28;20452;-79
2021/05/10 03:57:20;;;;;;;5.90;2.50;;;17.80;41.90;;;;;;4989521;28;20452;-79
2021/05/10 03:59:48;;;;;;;3.00;2.37;;;17.70;41.80;;;;;;4989180;28;20472;-79
2021/05/10 04:02:15;;;;;;;2.30;2.13;;;17.80;41.80;;;;;;4997826;28;20415;-79
2021/05/10 04:04:44;;;;;;;2.57;2.37;;;17.80;42.00;;;;;;4997564;28;20525;-78
2021/05/10 04:07:36;;;;;;;3.70;2.97;;;17.70;42.10;;;;;;4997966;28;20433;-78
2021/05/10 04:15:35;;;;;;;3.27;2.00;;;17.70;41.30;;;;;;4997739;28;20418;-78
2021/05/10 04:18:01;;;;;;;3.07;1.93;;;17.80;41.70;;;;;;4997325;28;20484;-78
2021/05/10 04:20:28;;;;;;;3.90;2.53;;;17.80;42.10;;;;;;4997089;28;20459;-79
2021/05/10 04:22:54;;;;;;;4.07;2.10;;;17.80;41.50;;;;;;4983113;28;20976;-78
2021/05/10 04:25:21;;;;;;;3.00;2.00;;;17.90;41.20;;;;;;4978585;28;20448;-79
2021/05/10 04:27:48;;;;;;;2.43;2.23;;;17.90;41.40;;;;;;4979976;28;20431;-78
2021/05/10 04:30:16;;;;;;;2.70;1.90;;;17.80;41.50;;;;;;4979683;28;20571;-78
2021/05/10 04:32:43;;;;;;;2.47;2.03;;;17.80;41.30;;;;;;4979171;28;20515;-79
2021/05/10 04:35:10;;;;;;;2.37;2.27;;;17.90;41.60;;;;;;4978752;28;20856;-79
2021/05/10 04:37:37;;;;;;;2.43;2.27;;;17.80;41.20;;;;;;4996545;28;20776;-79
2021/05/10 04:40:05;;;;;;;2.23;2.10;;;17.90;41.40;;;;;;4998169;28;20456;-80
2021/05/10 04:42:32;;;;;;;2.37;2.17;;;18.00;41.20;;;;;;4998899;28;20456;-79
2021/05/10 04:44:58;;;;;;;2.40;2.30;;;18.10;40.90;;;;;;4996187;28;20504;-79
2021/05/10 04:47:35;;;;;;;3.30;2.10;;;18.20;40.50;;;;;;4982463;28;20872;-78
2021/05/10 04:50:02;;;;;;;2.70;2.47;;;18.40;40.30;;;;;;4979592;28;20459;-78
2021/05/10 04:52:29;;;;;;;2.73;2.53;;;18.50;40.00;;;;;;4977393;28;20507;-79
2021/05/10 04:54:55;;;;;;;2.93;2.57;;;18.90;39.20;;;;;;4984721;28;20449;-79
2021/05/10 04:57:22;;;;;;;3.00;2.70;;;19.10;38.00;;;;;;4976399;28;20458;-78
2021/05/10 04:59:51;;;;;;;6.20;2.60;;;19.10;38.00;;;;;;4977722;28;20489;-78
2021/05/10 05:02:18;;;;;;;3.03;2.67;;;19.10;38.00;;;;;;4979371;28;20469;-78
2021/05/10 05:04:45;;;;;;;5.93;2.43;;;19.10;38.00;;;;;;4983115;28;20464;-78
2021/05/10 05:07:11;;;;;;;3.23;2.60;;;19.10;38.70;;;;;;4993088;28;20449;-79
2021/05/10 05:09:38;;;;;;;2.70;2.50;;;19.10;38.20;;;;;;4970205;28;20910;-77
2021/05/10 05:12:05;;;;;;;3.20;2.90;;;19.10;38.00;;;;;;4997049;28;20419;-78
2021/05/10 05:14:31;;;;;;;2.50;2.30;;;19.00;37.90;;;;;;4983493;28;20449;-77
2021/05/10 05:16:58;;;;;;;3.20;2.90;;;19.00;38.30;;;;;;4997380;28;20456;-78
2021/05/10 05:19:24;;;;;;;3.80;2.60;;;19.00;38.20;;;;;;4966277;28;20512;-79
2021/05/10 05:21:52;;;;;;;3.77;3.20;;;18.90;38.90;;;;;;4980055;28;20817;-77
2021/05/10 05:24:19;;;;;;;5.20;3.10;;;19.00;39.20;;;;;;4989616;28;20445;-77
2021/05/10 05:26:45;;;;;;;2.73;2.53;;;19.00;39.20;;;;;;4991799;28;20473;-78
2021/05/10 05:29:14;;;;;;;3.13;2.63;;;19.00;39.30;;;;;;4988509;28;20440;-76
2021/05/10 05:31:41;;;;;;;3.50;2.47;;;19.00;39.50;;;;;;4979985;28;20469;-77
2021/05/10 05:34:07;;;;;;;3.47;2.63;;;19.20;39.70;;;;;;4996355;28;20471;-77
2021/05/10 05:36:34;;;;;;;2.77;2.57;;;19.40;39.30;;;;;;4996240;28;20451;-77
2021/05/10 05:39:01;;;;;;;2.57;2.37;;;19.50;38.70;;;;;;4995632;28;20476;-77
2021/05/10 05:41:29;;;;;;;4.67;2.97;;;19.70;38.50;;;;;;4995816;28;20439;-76
2021/05/10 05:43:55;;;;;;;6.47;3.20;;;19.60;38.50;;;;;;4993395;28;20456;-77
2021/05/10 05:46:26;;;;;;;2.80;2.60;;;19.60;38.90;;;;;;4991417;28;20460;-77
2021/05/10 05:48:53;;;;;;;4.10;3.20;;;19.80;38.60;;;;;;4992763;28;20436;-77
2021/05/10 05:51:19;;;;;;;5.30;3.40;;;19.80;38.60;;;;;;4996841;28;20468;-77
2021/05/10 05:53:46;;;;;;;6.13;3.07;;;19.80;38.60;;;;;;4993941;28;20538;-77
2021/05/10 05:56:13;;;;;;;4.47;3.13;;;19.80;38.60;;;;;;4984772;28;20920;-77
2021/05/10 05:58:40;;;;;;;3.03;2.83;;;19.80;38.60;;;;;;4974909;28;20481;-77
2021/05/10 06:01:06;;;;;;;4.13;3.10;;;19.70;38.50;;;;;;4962007;28;20997;-77
2021/05/10 06:03:33;;;;;;;4.17;2.87;;;19.60;39.00;;;;;;4956342;28;20462;-77
2021/05/10 06:05:59;;;;;;;2.90;2.60;;;19.70;38.60;;;;;;4959123;28;20454;-79
2021/05/10 06:08:26;;;;;;;2.80;2.53;;;19.80;38.60;;;;;;4977928;28;20524;-78
2021/05/10 06:10:54;;;;;;;4.90;2.60;;;19.90;38.70;;;;;;4997768;28;20477;-79
2021/05/10 06:13:21;;;;;;;4.80;2.80;;;20.20;39.00;;;;;;4988452;28;20444;-76
2021/05/10 06:15:48;;;;;;;4.03;2.67;;;20.40;38.20;;;;;;4972418;28;20458;-78
2021/05/10 06:18:14;;;;;;;3.23;2.47;;;20.40;37.60;;;;;;4966733;28;20485;-78
2021/05/10 06:20:41;;;;;;;4.70;2.60;;;20.50;37.50;;;;;;4964190;28;20505;-79
2021/05/10 06:23:08;;;;;;;3.20;2.30;;;20.60;36.90;;;;;;4966822;28;20500;-80
2021/05/10 06:25:34;;;;;;;6.63;2.80;;;20.70;36.00;;;;;;4980490;28;20877;-80
2021/05/10 06:28:00;;;;;;;6.30;2.63;;;20.80;35.90;;;;;;4993712;28;20798;-78
2021/05/10 06:30:28;;;;;;;3.83;2.17;;;20.90;35.90;;;;;;5016896;28;20865;-79
2021/05/10 06:32:54;;;;;;;2.90;2.30;;;20.90;35.40;;;;;;5008341;28;20498;-80
2021/05/10 06:35:21;;;;;;;2.87;2.57;;;21.00;35.20;;;;;;4998468;28;20454;-79
2021/05/10 06:37:49;;;;;;;5.13;2.97;;;20.90;35.10;;;;;;4999209;28;20463;-78
2021/05/10 06:40:16;;;;;;;2.70;2.40;;;20.90;35.20;;;;;;5003132;28;20495;-78
2021/05/10 06:42:42;;;;;;;2.93;2.47;;;21.10;34.80;;;;;;5013924;28;20451;-78
2021/05/10 06:45:09;;;;;;;3.93;2.70;;;21.10;34.70;;;;;;5029175;28;20455;-79
2021/05/10 06:47:39;;;;;;;2.90;2.40;;;21.10;34.70;;;;;;5018036;28;20455;-78
2021/05/10 06:50:06;;;;;;;3.70;2.23;;;21.20;34.40;;;;;;5011732;28;20464;-78
2021/05/10 06:52:33;;;;;;;4.90;2.70;;;21.10;34.70;;;;;;5002844;28;20460;-78
2021/05/10 06:54:59;;;;;;;3.20;2.53;;;21.00;34.60;;;;;;5004425;28;20449;-78
2021/05/10 06:57:26;;;;;;;4.27;2.70;;;21.00;34.60;;;;;;5004511;28;20430;-78
2021/05/10 06:59:53;;;;;;;7.13;2.57;;;20.90;34.80;;;;;;5017662;28;20495;-76
2021/05/10 07:02:21;;;;;;;3.63;1.83;;;20.80;35.20;;;;;;5013442;28;20473;-77
2021/05/10 07:04:49;;;;;;;3.13;1.97;;;20.60;35.60;;;;;;5015248;28;20469;-78
2021/05/10 07:07:15;;;;;;;3.57;2.07;;;20.60;36.20;;;;;;5012445;28;20521;-78
2021/05/10 07:09:42;;;;;;;11.70;2.60;;;20.70;36.30;;;;;;5016631;28;21008;-79
2021/05/10 07:12:11;;;;;;;2.60;2.17;;;20.90;35.90;;;;;;5016933;28;20943;-79
2021/05/10 07:14:37;;;;;;;3.77;2.70;;;21.00;35.40;;;;;;5000239;28;20459;-79
2021/05/10 07:17:04;;;;;;;2.93;2.17;;;21.20;35.60;;;;;;5001596;28;20438;-79
2021/05/10 07:19:30;;;;;;;2.47;2.13;;;21.20;35.00;;;;;;5000810;28;20494;-78
2021/05/10 07:21:57;;;;;;;6.17;2.47;;;21.20;35.10;;;;;;5013706;28;20458;-79
2021/05/10 07:24:24;;;;;;;2.73;2.10;;;21.20;35.30;;;;;;5037426;28;20414;-78
2021/05/10 07:26:50;;;;;;;7.03;3.17;;;21.10;35.40;;;;;;5036860;28;20451;-79
2021/05/10 07:29:17;;;;;;;2.93;2.10;;;21.10;35.60;;;;;;5039568;28;20459;-79
2021/05/10 07:31:43;;;;;;;5.93;3.10;;;21.40;35.20;;;;;;5036716;28;20474;-79
2021/05/10 07:34:10;;;;;;;4.77;2.10;;;21.70;34.70;;;;;;5018343;28;20439;-78
2021/05/10 07:36:36;;;;;;;2.90;2.30;;;21.80;34.60;;;;;;5019031;28;20443;-80
2021/05/10 07:39:05;;;;;;;4.53;2.10;;;22.00;34.00;;;;;;5037154;28;20477;-81
2021/05/10 07:41:31;;;;;;;8.87;2.93;;;22.20;33.70;;;;;;5034183;28;20564;-80
2021/05/10 07:43:58;;;;;;;3.80;3.07;;;22.40;33.50;;;;;;5017930;28;20436;-82
2021/05/10 07:46:24;;;;;;;7.07;2.30;;;22.60;33.20;;;;;;5027320;28;20454;-81
2021/05/10 07:48:51;;;;;;;6.20;2.37;;;23.00;32.00;;;;;;5031041;28;20508;-80
2021/05/10 07:51:17;;;;;;;5.53;2.10;;;23.00;31.30;;;;;;5031041;28;20513;-81
2021/05/10 07:53:44;;;;;;;3.97;1.93;;;22.70;31.90;;;;;;5030708;28;20436;-82
2021/05/10 07:56:13;;;;;;;3.43;2.00;;;22.50;32.00;;;;;;5032088;28;20469;-81
2021/05/10 07:58:43;;;;;;;6.93;2.07;;;22.30;32.90;;;;;;5032806;28;20490;-82
2021/05/10 08:01:10;;;;;;;6.10;2.40;;;22.20;32.90;;;;;;5031877;28;20466;-81
2021/05/10 08:03:36;;;;;;;2.13;1.90;;;22.20;33.00;;;;;;5031337;28;20447;-80
2021/05/10 08:06:03;;;;;;;3.77;1.80;;;21.90;32.90;;;;;;5029928;28;20463;-80
2021/05/10 08:08:29;;;;;;;2.90;1.40;;;21.70;33.40;;;;;;5033647;28;20507;-80
2021/05/10 08:10:56;;;;;;;3.33;1.90;;;21.40;33.60;;;;;;5033653;28;20470;-80
2021/05/10 08:13:23;;;;;;;2.53;1.53;;;21.10;34.30;;;;;;5033746;28;20996;-81
2021/05/10 08:15:50;;;;;;;3.83;1.30;;;20.60;34.80;;;;;;5032812;28;20446;-81
2021/05/10 08:18:16;;;;;;;5.17;1.83;;;20.50;35.60;;;;;;5033895;28;20794;-81
2021/05/10 08:20:44;;;;;;;1.70;1.33;;;20.50;35.90;;;;;;5033259;28;20986;-80
2021/05/10 08:23:12;;;;;;;4.20;1.40;;;20.70;35.50;;;;;;5030708;28;20486;-81
2021/05/10 08:25:39;;;;;;;2.60;1.57;;;20.70;34.80;;;;;;5022593;28;20452;-80
2021/05/10 08:28:06;;;;;;;3.07;1.13;;;20.70;34.50;;;;;;5011604;28;20506;-81
2021/05/10 08:30:34;;;;;;;0.83;0.83;;;20.50;34.00;;;;;;5020624;28;20477;-80
2021/05/10 08:33:02;;;;;;;1.27;1.17;;;20.50;34.00;;;;;;5033177;28;20446;-80
2021/05/10 08:35:29;;;;;;;2.10;1.00;;;20.30;34.20;;;;;;5031801;28;20939;-80
2021/05/10 08:37:55;;;;;;;2.83;1.20;;;20.30;34.30;;;;;;5036468;28;20451;-80
2021/05/10 08:40:22;;;;;;;1.63;0.73;;;20.40;34.30;;;;;;5031257;28;20469;-82
2021/05/10 08:42:48;;;;;;;3.23;1.10;;;20.50;33.80;;;;;;5003979;28;20455;-80
2021/05/10 08:45:19;;;;;;;2.20;1.10;;;20.60;34.00;;;;;;5005294;28;20462;-80
2021/05/10 08:47:47;;;;;;;2.33;1.30;;;20.50;34.10;;;;;;5022299;28;20466;-81
2021/05/10 08:50:14;;;;;;;1.60;1.17;;;20.50;34.20;;;;;;5021011;28;20477;-81
2021/05/10 08:52:41;;;;;;;2.73;1.30;;;20.40;34.40;;;;;;5022551;28;20459;-82
2021/05/10 08:55:13;;;;;;;1.00;0.90;;;20.60;33.70;;;;;;5008621;28;20525;-82
2021/05/10 08:57:39;;;;;;;1.80;1.20;;;20.60;33.30;;;;;;5007728;28;20920;-82
2021/05/10 09:00:11;;;;;;;2.87;1.23;;;20.80;33.20;;;;;;5002506;28;20498;-81
2021/05/10 09:02:37;;;;;;;1.90;0.93;;;21.00;32.90;;;;;;5005844;28;20486;-81
2021/05/10 09:05:15;;;;;;;2.47;1.27;;;21.20;32.90;;;;;;5013971;28;20455;-82
2021/05/10 09:07:43;;;;;;;2.00;0.97;;;21.20;33.10;;;;;;5024994;28;20459;-81
2021/05/10 09:10:11;;;;;;;1.17;0.93;;;21.20;32.50;;;;;;5033142;28;20471;-82
2021/05/10 09:12:48;;;;;;;0.93;0.83;;;21.00;32.80;;;;;;5035149;28;20454;-83
2021/05/10 09:15:23;;;;;;;1.00;0.90;;;20.90;32.70;;;;;;5036524;28;20500;-82
2021/05/10 09:17:54;;;;;;;3.17;0.70;;;20.80;33.40;;;;;;5017409;28;20510;-81
2021/05/10 09:20:23;;;;;;;1.27;0.70;;;21.10;32.70;;;;;;5016570;28;20495;-81
2021/05/10 09:22:52;;;;;;;1.90;0.73;;;21.30;32.40;;;;;;5015593;28;20440;-80
2021/05/10 09:25:20;;;;;;;2.03;1.00;;;21.50;31.60;;;;;;5013146;28;20471;-80
2021/05/10 09:27:48;;;;;;;1.63;0.73;;;21.70;31.10;;;;;;5032542;28;20443;-81
2021/05/10 09:30:21;;;;;;;0.60;0.60;;;21.60;31.40;;;;;;5035270;28;20479;-81
2021/05/10 09:32:53;;;;;;;1.10;0.80;;;21.80;30.90;;;;;;5006664;28;20464;-81
2021/05/10 09:35:25;;;;;;;0.93;0.80;;;21.70;30.70;;;;;;5008768;28;20459;-80
2021/05/10 09:38:04;;;;;;;2.03;0.73;;;21.40;31.20;;;;;;5028041;28;20451;-80
2021/05/10 09:40:43;;;;;;;1.50;0.63;;;21.70;31.00;;;;;;5023438;28;20482;-82
2021/05/10 09:43:15;;;;;;;0.93;0.60;;;21.60;31.80;;;;;;5023338;28;20423;-80
2021/05/10 09:45:46;;;;;;;0.50;0.50;;;21.70;31.30;;;;;;5024115;28;20418;-81
2021/05/10 09:48:25;;;;;;;0.93;0.87;;;21.80;30.10;;;;;;5024527;28;20421;-80
2021/05/10 09:50:55;;;;;;;1.70;0.80;;;21.90;30.20;;;;;;5023942;28;20499;-81
2021/05/10 09:53:38;;;;;;;1.13;0.70;;;22.00;30.30;;;;;;5023417;28;20513;-81
2021/05/10 09:56:07;;;;;;;1.07;0.70;;;22.00;30.30;;;;;;5024502;28;20447;-81
2021/05/10 09:58:42;;;;;;;1.07;0.97;;;21.80;30.60;;;;;;5012767;28;20537;-81
2021/05/10 10:01:09;;;;;;;1.43;0.93;;;21.90;30.20;;;;;;5016300;28;20497;-80
2021/05/10 10:03:38;;;;;;;1.77;0.80;;;22.00;30.30;;;;;;5018725;28;20461;-81
2021/05/10 10:06:08;;;;;;;1.03;0.77;;;22.10;30.40;;;;;;5034187;28;20443;-80
2021/05/10 10:08:36;;;;;;;0.87;0.77;;;22.10;30.40;;;;;;5026353;28;20443;-80
2021/05/10 10:11:14;;;;;;;0.70;0.70;;;22.20;30.50;;;;;;5017158;28;20483;-82
2021/05/10 10:13:41;;;;;;;0.90;0.60;;;22.00;29.50;;;;;;5036296;28;20455;-81
2021/05/10 10:16:09;;;;;;;0.67;0.67;;;22.00;29.20;;;;;;5028508;28;20463;-80
2021/05/10 10:18:38;;;;;;;1.00;0.70;;;22.10;29.60;;;;;;5015752;28;20475;-81
2021/05/10 10:21:06;;;;;;;0.60;0.60;;;22.20;29.60;;;;;;5006034;28;20479;-80
2021/05/10 10:23:34;;;;;;;0.53;0.53;;;22.30;30.10;;;;;;5008067;28;20444;-78
2021/05/10 10:26:02;;;;;;;0.90;0.70;;;22.70;28.80;;;;;;5006185;28;20940;-78
2021/05/10 10:28:29;;;;;;;1.27;0.73;;;22.50;28.80;;;;;;5010768;28;20454;-78
2021/05/10 10:30:59;;;;;;;0.87;0.87;;;22.50;29.10;;;;;;5016083;28;20474;-79
2021/05/10 10:33:30;;;;;;;0.80;0.70;;;22.70;29.30;;;;;;5016558;28;20455;-78
2021/05/10 10:35:57;;;;;;;1.70;0.80;;;22.60;29.10;;;;;;5019141;28;20517;-78
2021/05/10 10:38:30;;;;;;;2.83;0.60;;;22.60;29.60;;;;;;5019367;28;20474;-78
2021/05/10 10:41:19;;;;;;;0.97;0.50;;;22.40;28.80;;;;;;5020364;28;20478;-78
2021/05/10 10:43:47;;;;;;;0.93;0.80;;;22.00;29.00;;;;;;5001162;28;20467;-78
2021/05/10 10:46:28;;;;;;;0.70;0.50;;;21.90;29.50;;;;;;5009048;28;20484;-78
2021/05/10 10:49:19;;;;;;;0.63;0.57;;;22.10;28.80;;;;;;5005766;28;20951;-77
2021/05/10 10:51:52;;;;;;;0.70;0.70;;;21.90;29.10;;;;;;5009726;28;20467;-78
2021/05/10 10:54:23;;;;;;;1.80;0.93;;;21.80;30.10;;;;;;5005937;28;20455;-77
2021/05/10 10:56:57;;;;;;;0.70;0.70;;;21.80;30.10;;;;;;5003327;28;20491;-79
2021/05/10 10:59:32;;;;;;;0.77;0.70;;;22.00;30.10;;;;;;5006361;28;20558;-78
2021/05/10 11:02:14;;;;;;;0.63;0.63;;;22.30;29.60;;;;;;5114881;23;20462;-80
2021/05/10 11:05:14;;;;;;;0.80;0.80;;;22.30;29.90;;;;;;5074257;28;20437;-80
2021/05/10 11:07:48;;;;;;;0.70;0.60;;;22.00;30.30;;;;;;5078061;28;20470;-82
2021/05/10 11:10:58;;;;;;;0.70;0.70;;;21.80;30.10;;;;;;5067514;28;20816;-79
2021/05/10 11:13:37;;;;;;;0.70;0.70;;;21.60;30.00;;;;;;5054109;28;20472;-83
2021/05/10 11:16:05;;;;;;;3.40;0.70;;;21.40;30.70;;;;;;5070086;28;20445;-81
2021/05/10 11:18:37;;;;;;;0.60;0.60;;;21.50;31.00;;;;;;5076957;28;20476;-81
2021/05/10 11:21:10;;;;;;;2.57;0.90;;;21.60;30.40;;;;;;5076934;28;20476;-82
2021/05/10 11:23:38;;;;;;;0.70;0.70;;;21.50;30.50;;;;;;5071427;28;20420;-81
2021/05/10 11:26:06;;;;;;;0.73;0.73;;;21.40;30.70;;;;;;5052822;28;20449;-79
2021/05/10 11:28:47;;;;;;;2.53;0.50;;;21.20;31.20;;;;;;5049163;28;20453;-80
2021/05/10 11:31:33;;;;;;;1.20;0.60;;;21.20;31.50;;;;;;5049336;28;20469;-80
2021/05/10 11:34:23;;;;;;;1.00;0.70;;;21.00;32.10;;;;;;5042749;28;20438;-80
2021/05/10 11:36:52;;;;;;;0.90;0.90;;;20.70;33.10;;;;;;5044224;28;20453;-79
2021/05/10 11:39:23;;;;;;;0.90;0.60;;;20.60;33.50;;;;;;5044134;28;20550;-82
2021/05/10 11:41:50;;;;;;;1.00;0.60;;;20.60;33.20;;;;;;5044850;28;20466;-80
2021/05/10 11:44:21;;;;;;;0.70;0.70;;;20.50;33.30;;;;;;5054055;28;20486;-80
2021/05/10 11:46:50;;;;;;;0.70;0.70;;;20.70;33.20;;;;;;5048567;28;20413;-80
2021/05/10 11:49:28;;;;;;;0.90;0.80;;;20.80;33.20;;;;;;5044432;28;20492;-82
2021/05/10 11:51:57;;;;;;;2.33;0.60;;;20.80;33.20;;;;;;5047103;28;20465;-81
2021/05/10 11:54:24;;;;;;;1.30;0.63;;;20.80;33.00;;;;;;5040995;28;20880;-80
2021/05/10 11:56:52;;;;;;;1.60;0.60;;;20.60;34.20;;;;;;5044282;28;20493;-80
2021/05/10 11:59:42;;;;;;;3.60;0.90;;;20.60;34.20;;;;;;5048212;28;20477;-80
2021/05/10 12:02:22;;;;;;;6.50;0.80;;;20.60;34.70;;;;;;5046196;28;20477;-80
2021/05/10 12:04:51;;;;;;;1.17;0.67;;;20.70;34.60;;;;;;5045400;28;20484;-79
2021/05/10 12:07:18;;;;;;;2.07;0.93;;;20.80;34.80;;;;;;5043595;28;20443;-80
2021/05/10 12:09:50;;;;;;;0.80;0.63;;;20.80;35.00;;;;;;5044156;28;20485;-81
2021/05/10 12:12:29;;;;;;;0.90;0.63;;;20.70;34.90;;;;;;5042846;28;20478;-79
2021/05/10 12:14:58;;;;;;;3.50;0.80;;;20.20;37.50;;;;;;5041886;28;20934;-80
2021/05/10 12:17:27;;;;;;;0.67;0.60;;;20.00;38.90;;;;;;5043659;28;20541;-81
2021/05/10 12:19:59;;;;;;;1.30;0.50;;;19.60;39.10;;;;;;5045852;28;20476;-85
2021/05/10 12:22:27;;;;;;;0.70;0.70;;;19.30;39.60;;;;;;5047597;28;20420;-85
2021/05/10 12:25:14;;;;;;;1.07;0.80;;;19.00;40.80;;;;;;5047027;28;20477;-84
2021/05/10 12:27:45;;;;;;;0.90;0.50;;;18.70;41.50;;;;;;5049131;28;20769;-82
2021/05/10 12:30:19;;;;;;;0.90;0.50;;;18.60;42.50;;;;;;5056025;28;20663;-82
2021/05/10 12:32:47;;;;;;;1.00;0.50;;;18.50;42.10;;;;;;5057196;28;20477;-82
2021/05/10 12:35:17;;;;;;;1.33;0.70;;;18.50;43.20;;;;;;5056824;28;20458;-81
2021/05/10 12:37:45;;;;;;;0.70;0.70;;;18.60;42.30;;;;;;5054923;28;20951;-81
2021/05/10 12:40:14;;;;;;;0.97;0.97;;;18.60;41.00;;;;;;5052951;28;20513;-81
2021/05/10 12:42:42;;;;;;;2.40;0.90;;;18.80;41.70;;;;;;5041162;28;20511;-82
2021/05/10 12:45:10;;;;;;;1.17;0.40;;;19.10;42.00;;;;;;5041882;28;20814;-80
2021/05/10 12:47:48;;;;;;;0.90;0.50;;;19.10;39.80;;;;;;5042017;28;20433;-80
2021/05/10 12:50:37;;;;;;;1.20;0.60;;;18.90;38.30;;;;;;5047995;28;20448;-80
2021/05/10 12:53:05;;;;;;;1.63;0.40;;;19.00;39.70;;;;;;5046359;28;20454;-81
2021/05/10 12:55:32;;;;;;;0.60;0.60;;;19.10;38.50;;;;;;5041520;28;20441;-79
2021/05/10 12:58:00;;;;;;;0.80;0.60;;;19.10;38.80;;;;;;5044286;28;20421;-82
2021/05/10 13:00:36;;;;;;;1.03;0.63;;;19.00;39.30;;;;;;5046251;28;20486;-81
2021/05/10 13:03:05;;;;;;;2.00;0.63;;;19.10;40.10;;;;;;5046501;28;20756;-81